createdAt,value
2023-11-15T00:00:12.216Z,4.28
2023-11-15T00:02:41.673Z,2.50
2023-11-15T00:05:09.591Z,2.15
2023-11-15T00:07:37.274Z,2.72
2023-11-15T00:10:06.741Z,2.92
2023-11-15T00:12:35.969Z,3.83
2023-11-15T00:15:05.118Z,2.63
2023-11-15T00:17:32.965Z,2.30
2023-11-15T00:20:05.240Z,2.10
2023-11-15T00:22:33.047Z,3.78
2023-11-15T00:25:01.090Z,2.17
2023-11-15T00:27:28.760Z,2.40
2023-11-15T00:29:57.944Z,2.40
2023-11-15T00:32:25.713Z,2.33
2023-11-15T00:34:53.398Z,2.65
2023-11-15T00:37:21.017Z,2.60
2023-11-15T00:39:48.846Z,3.35
2023-11-15T00:42:16.651Z,2.53
2023-11-15T00:44:44.620Z,2.42
2023-11-15T00:47:13.616Z,2.95
2023-11-15T00:49:45.085Z,2.30
2023-11-15T00:52:15.047Z,2.05
2023-11-15T00:54:42.759Z,2.40
2023-11-15T00:57:10.652Z,3.22
2023-11-15T00:59:45.534Z,2.88
2023-11-15T01:02:15.236Z,2.85
2023-11-15T01:04:43.291Z,2.55
2023-11-15T01:07:10.940Z,2.50
2023-11-15T01:09:39.172Z,2.70
2023-11-15T01:12:08.571Z,2.60
2023-11-15T01:14:36.386Z,2.90
2023-11-15T01:17:04.533Z,4.07
2023-11-15T01:19:33.664Z,2.30
2023-11-15T01:22:01.337Z,2.88
2023-11-15T01:24:29.053Z,2.83
2023-11-15T01:26:56.790Z,2.88
2023-11-15T01:29:24.610Z,2.35
2023-11-15T01:31:52.278Z,3.50
2023-11-15T01:34:20.460Z,2.67
2023-11-15T01:36:50.212Z,2.58
2023-11-15T01:39:18.253Z,3.15
2023-11-15T01:41:49.989Z,2.72
2023-11-15T01:44:17.756Z,4.30
2023-11-15T01:46:47.152Z,3.05
2023-11-15T01:49:15.015Z,4.75
2023-11-15T01:51:44.124Z,2.83
2023-11-15T01:54:14.424Z,3.08
2023-11-15T01:56:42.419Z,2.40
2023-11-15T01:59:10.907Z,1.83
2023-11-15T02:01:39.014Z,2.60
2023-11-15T02:04:06.914Z,2.40
2023-11-15T02:06:36.673Z,2.45
2023-11-15T02:09:06.000Z,1.77
2023-11-15T02:11:35.343Z,3.67
2023-11-15T02:14:04.396Z,2.90
2023-11-15T02:16:32.468Z,2.45
2023-11-15T02:19:01.602Z,1.88
2023-11-15T02:21:29.959Z,2.33
2023-11-15T02:24:00.079Z,3.20
2023-11-15T02:26:27.801Z,2.28
2023-11-15T02:28:55.996Z,2.38
2023-11-15T02:31:23.652Z,2.15
2023-11-15T02:33:51.306Z,2.25
2023-11-15T02:36:18.934Z,2.33
2023-11-15T02:38:46.620Z,2.33
2023-11-15T02:41:15.580Z,2.00
2023-11-15T02:43:43.265Z,2.28
2023-11-15T02:46:10.957Z,2.63
2023-11-15T02:48:38.704Z,1.92
2023-11-15T02:51:06.770Z,2.88
2023-11-15T02:53:34.674Z,2.38
2023-11-15T02:56:02.585Z,2.67
2023-11-15T02:58:32.271Z,3.38
2023-11-15T03:00:59.940Z,2.08
2023-11-15T03:03:27.739Z,2.75
2023-11-15T03:05:55.568Z,2.90
2023-11-15T03:08:23.544Z,2.28
2023-11-15T03:10:51.290Z,3.13
2023-11-15T03:13:20.157Z,2.15
2023-11-15T03:15:49.553Z,2.50
2023-11-15T03:18:17.260Z,2.92
2023-11-15T03:20:45.048Z,3.88
2023-11-15T03:23:12.807Z,2.95
2023-11-15T03:25:40.661Z,2.33
2023-11-15T03:28:08.322Z,3.40
2023-11-15T03:30:36.021Z,3.10
2023-11-15T03:33:05.120Z,2.80
2023-11-15T03:35:33.224Z,3.13
2023-11-15T03:38:02.952Z,3.88
2023-11-15T03:40:30.544Z,3.22
2023-11-15T03:42:58.189Z,2.63
2023-11-15T03:45:25.818Z,3.67
2023-11-15T03:47:53.556Z,2.53
2023-11-15T03:50:22.810Z,3.53
2023-11-15T03:52:50.473Z,3.00
2023-11-15T03:55:18.293Z,1.90
2023-11-15T03:57:47.537Z,3.00
2023-11-15T04:00:18.002Z,2.42
2023-11-15T04:02:46.527Z,2.75
2023-11-15T04:05:16.542Z,2.75
2023-11-15T04:07:45.808Z,2.38
2023-11-15T04:10:13.753Z,2.72
2023-11-15T04:12:42.318Z,2.30
2023-11-15T04:15:11.275Z,2.78
2023-11-15T04:17:42.587Z,2.85
2023-11-15T04:20:11.452Z,2.22
2023-11-15T04:22:39.537Z,2.53
2023-11-15T04:25:09.455Z,3.15
2023-11-15T04:27:37.810Z,2.80
2023-11-15T04:30:05.834Z,2.25
2023-11-15T04:32:33.555Z,2.85
2023-11-15T04:35:01.253Z,2.35
2023-11-15T04:37:29.457Z,2.97
2023-11-15T04:39:58.095Z,3.00
2023-11-15T04:42:26.397Z,2.30
2023-11-15T04:44:54.185Z,2.60
2023-11-15T04:47:21.993Z,2.60
2023-11-15T04:49:50.280Z,2.33
2023-11-15T04:52:18.019Z,2.80
2023-11-15T04:54:45.630Z,2.58
2023-11-15T04:57:13.418Z,2.75
2023-11-15T04:59:42.465Z,2.83
2023-11-15T05:02:11.719Z,3.03
2023-11-15T05:04:40.173Z,2.17
2023-11-15T05:07:08.039Z,1.95
2023-11-15T05:09:35.645Z,2.85
2023-11-15T05:12:03.304Z,2.75
2023-11-15T05:14:30.934Z,2.78
2023-11-15T05:16:59.933Z,2.25
2023-11-15T05:19:27.638Z,2.88
2023-11-15T05:21:55.262Z,2.90
2023-11-15T05:24:22.952Z,2.53
2023-11-15T05:26:51.384Z,2.28
2023-11-15T05:29:19.055Z,3.83
2023-11-15T05:31:48.134Z,2.38
2023-11-15T05:34:17.337Z,3.55
2023-11-15T05:36:45.693Z,3.67
2023-11-15T05:39:13.327Z,2.65
2023-11-15T05:41:41.289Z,2.53
2023-11-15T05:44:09.034Z,2.55
2023-11-15T05:46:36.881Z,3.05
2023-11-15T05:49:05.271Z,2.80
2023-11-15T05:51:35.641Z,2.67
2023-11-15T05:54:05.978Z,2.95
2023-11-15T05:56:33.815Z,2.15
2023-11-15T05:59:01.879Z,3.35
2023-11-15T06:01:29.536Z,3.97
2023-11-15T06:03:57.382Z,2.53
2023-11-15T06:06:25.032Z,3.00
2023-11-15T06:08:54.037Z,2.97
2023-11-15T06:11:32.154Z,2.63
2023-11-15T06:13:59.853Z,2.38
2023-11-15T06:16:27.817Z,2.97
2023-11-15T06:18:55.753Z,3.90
2023-11-15T06:21:23.723Z,3.45
2023-11-15T06:23:55.377Z,3.72
2023-11-15T06:26:24.438Z,2.63
2023-11-15T06:28:56.693Z,3.65
2023-11-15T06:31:27.297Z,3.75
2023-11-15T06:33:55.190Z,2.78
2023-11-15T06:36:22.926Z,3.28
2023-11-15T06:38:50.726Z,3.33
2023-11-15T06:41:18.411Z,3.25
2023-11-15T06:43:47.597Z,3.97
2023-11-15T06:46:18.168Z,3.72
2023-11-15T06:48:45.943Z,4.88
2023-11-15T06:51:13.805Z,3.10
2023-11-15T06:53:41.986Z,3.78
2023-11-15T06:56:10.074Z,4.88
2023-11-15T06:58:38.029Z,3.22
2023-11-15T07:01:08.712Z,2.90
2023-11-15T07:03:38.257Z,2.95
2023-11-15T07:06:10.020Z,2.40
2023-11-15T07:08:38.498Z,3.63
2023-11-15T07:11:09.171Z,2.58
2023-11-15T07:13:36.904Z,4.18
2023-11-15T07:16:05.792Z,2.53
2023-11-15T07:18:35.336Z,2.65
2023-11-15T07:21:03.142Z,2.67
2023-11-15T07:23:30.857Z,3.67
2023-11-15T07:25:58.565Z,3.08
2023-11-15T07:28:26.336Z,2.85
2023-11-15T07:30:56.612Z,2.35
2023-11-15T07:33:24.943Z,2.28
2023-11-15T07:35:55.899Z,2.92
2023-11-15T07:38:24.747Z,2.70
2023-11-15T07:40:52.441Z,3.33
2023-11-15T07:43:20.180Z,4.30
2023-11-15T07:45:53.124Z,3.78
2023-11-15T07:48:22.035Z,2.10
2023-11-15T07:50:50.084Z,3.03
2023-11-15T07:53:19.151Z,2.22
2023-11-15T07:55:47.366Z,3.03
2023-11-15T07:58:16.270Z,2.53
2023-11-15T08:00:43.931Z,2.45
2023-11-15T08:03:14.036Z,2.35
2023-11-15T08:05:41.936Z,2.88
2023-11-15T08:08:10.721Z,2.63
2023-11-15T08:10:44.741Z,2.90
2023-11-15T08:13:12.389Z,3.40
2023-11-15T08:15:41.044Z,2.30
2023-11-15T08:18:10.206Z,3.10
2023-11-15T08:20:48.246Z,3.70
2023-11-15T08:23:16.309Z,3.00
2023-11-15T08:25:47.081Z,2.65
2023-11-15T08:28:14.797Z,3.13
2023-11-15T08:30:42.452Z,3.88
2023-11-15T08:33:11.168Z,2.88
2023-11-15T08:35:38.904Z,2.33
2023-11-15T08:38:09.101Z,3.42
2023-11-15T08:40:36.796Z,2.50
2023-11-15T08:43:04.469Z,2.72
2023-11-15T08:45:32.169Z,2.90
2023-11-15T08:48:00.122Z,3.35
2023-11-15T08:50:28.536Z,2.15
2023-11-15T08:52:57.719Z,2.22
2023-11-15T08:55:27.435Z,3.47
2023-11-15T08:57:57.460Z,2.50
2023-11-15T09:00:25.745Z,2.97
2023-11-15T09:02:53.521Z,2.00
2023-11-15T09:05:24.159Z,2.58
2023-11-15T09:07:51.993Z,1.70
2023-11-15T09:10:19.765Z,2.22
2023-11-15T09:12:48.884Z,1.83
2023-11-15T09:15:16.562Z,3.17
2023-11-15T09:17:47.325Z,1.63
2023-11-15T09:20:18.622Z,2.60
2023-11-15T09:22:50.866Z,1.42
2023-11-15T09:25:22.977Z,2.10
2023-11-15T09:27:53.690Z,1.98
2023-11-15T09:30:22.240Z,2.35
2023-11-15T09:32:51.901Z,1.80
2023-11-15T09:35:22.386Z,2.30
2023-11-15T09:37:51.381Z,2.75
2023-11-15T09:40:20.496Z,2.22
2023-11-15T09:42:49.358Z,2.45
2023-11-15T09:45:19.861Z,1.50
2023-11-15T09:47:48.456Z,2.13
2023-11-15T09:50:18.976Z,1.95
2023-11-15T09:52:50.541Z,1.90
2023-11-15T09:55:18.755Z,3.05
2023-11-15T09:57:47.732Z,1.77
2023-11-15T10:00:22.051Z,1.75
2023-11-15T10:02:52.955Z,1.85
2023-11-15T10:05:21.691Z,2.40
2023-11-15T10:07:49.924Z,1.70
2023-11-15T10:10:19.492Z,2.20
2023-11-15T10:12:47.994Z,2.00
2023-11-15T10:15:15.646Z,2.22
2023-11-15T10:17:44.803Z,2.35
2023-11-15T10:20:21.560Z,1.70
2023-11-15T10:22:49.594Z,1.88
2023-11-15T10:25:17.364Z,1.98
2023-11-15T10:27:45.900Z,1.20
2023-11-15T10:30:17.341Z,2.08
2023-11-15T10:32:48.753Z,1.58
2023-11-15T10:35:28.684Z,2.08
2023-11-15T10:37:56.872Z,1.63
2023-11-15T10:40:27.123Z,1.80
2023-11-15T10:42:56.552Z,2.05
2023-11-15T10:45:29.273Z,2.28
2023-11-15T10:48:00.255Z,1.83
2023-11-15T10:50:32.018Z,2.35
2023-11-15T10:53:00.426Z,1.98
2023-11-15T10:55:30.888Z,1.38
2023-11-15T10:58:02.015Z,1.90
2023-11-15T11:00:31.270Z,1.65
2023-11-15T11:02:59.681Z,1.42
2023-11-15T11:05:35.347Z,1.83
2023-11-15T11:08:09.240Z,1.75
2023-11-15T11:10:40.109Z,1.98
2023-11-15T11:13:23.257Z,1.73
2023-11-15T11:15:51.176Z,1.80
2023-11-15T11:18:20.952Z,1.98
2023-11-15T11:21:01.509Z,1.40
2023-11-15T11:23:34.550Z,2.05
2023-11-15T11:26:22.487Z,1.80
2023-11-15T11:29:04.621Z,1.65
2023-11-15T11:31:32.544Z,1.50
2023-11-15T11:34:13.776Z,1.40
2023-11-15T11:36:51.140Z,1.73
2023-11-15T11:39:23.978Z,1.60
2023-11-15T11:41:51.970Z,2.35
2023-11-15T11:44:20.419Z,1.65
2023-11-15T11:47:02.796Z,2.10
2023-11-15T11:49:45.310Z,1.50
2023-11-15T11:52:16.225Z,1.40
2023-11-15T11:54:43.883Z,1.70
2023-11-15T11:57:11.577Z,2.47
2023-11-15T11:59:39.396Z,1.70
2023-11-15T12:02:07.723Z,1.50
2023-11-15T12:04:44.382Z,1.55
2023-11-15T12:07:12.443Z,1.95
2023-11-15T12:09:42.744Z,1.35
2023-11-15T12:12:10.717Z,1.20
2023-11-15T12:14:47.551Z,0.98
2023-11-15T12:17:16.036Z,2.05
2023-11-15T12:19:44.061Z,1.13
2023-11-15T12:22:12.351Z,1.35
2023-11-15T12:24:44.639Z,1.75
2023-11-15T12:27:12.779Z,1.88
2023-11-15T12:29:41.720Z,2.00
2023-11-15T12:32:12.348Z,1.23
2023-11-15T12:34:40.108Z,1.55
2023-11-15T12:37:08.129Z,0.95
2023-11-15T12:39:39.381Z,2.25
2023-11-15T12:42:09.143Z,0.82
2023-11-15T12:44:43.347Z,1.20
2023-11-15T12:47:11.193Z,1.60
2023-11-15T12:49:40.445Z,2.00
2023-11-15T12:52:08.772Z,1.70
2023-11-15T12:54:36.906Z,1.23
2023-11-15T12:57:08.849Z,0.98
2023-11-15T12:59:39.596Z,1.33
2023-11-15T13:02:08.083Z,1.25
2023-11-15T13:04:49.396Z,1.00
2023-11-15T13:07:17.842Z,1.38
2023-11-15T13:09:46.342Z,0.95
2023-11-15T13:12:26.655Z,1.23
2023-11-15T13:14:57.743Z,0.90
2023-11-15T13:17:29.270Z,0.93
2023-11-15T13:20:00.695Z,0.52
2023-11-15T13:22:30.403Z,1.20
2023-11-15T13:24:58.184Z,1.10
2023-11-15T13:27:25.896Z,1.08
2023-11-15T13:29:54.991Z,1.02
2023-11-15T13:32:23.442Z,0.70
2023-11-15T13:34:52.145Z,1.00
2023-11-15T13:37:20.611Z,0.80
2023-11-15T13:39:48.611Z,1.20
2023-11-15T13:42:20.378Z,1.25
2023-11-15T13:44:48.601Z,1.00
2023-11-15T13:47:18.417Z,1.33
2023-11-15T13:49:47.576Z,1.42
2023-11-15T13:52:15.273Z,0.90
2023-11-15T13:54:43.014Z,0.85
2023-11-15T13:57:10.803Z,1.33
2023-11-15T13:59:38.516Z,1.50
2023-11-15T14:02:06.232Z,1.48
2023-11-15T14:04:36.515Z,0.85
2023-11-15T14:07:04.599Z,1.20
2023-11-15T14:09:33.981Z,1.63
2023-11-15T14:12:01.681Z,1.27
2023-11-15T14:14:29.371Z,1.00
2023-11-15T14:16:57.617Z,2.33
2023-11-15T14:19:30.376Z,1.85
2023-11-15T14:21:59.710Z,1.85
2023-11-15T14:24:27.455Z,2.00
2023-11-15T14:26:55.278Z,1.35
2023-11-15T14:29:23.185Z,1.10
2023-11-15T14:31:50.842Z,0.95
2023-11-15T14:34:18.706Z,1.23
2023-11-15T14:36:46.621Z,1.15
2023-11-15T14:39:16.260Z,1.65
2023-11-15T14:41:47.016Z,2.22
2023-11-15T14:44:14.703Z,1.08
2023-11-15T14:46:42.405Z,1.20
2023-11-15T14:49:13.861Z,1.30
2023-11-15T14:51:41.762Z,1.02
2023-11-15T14:54:11.329Z,1.40
2023-11-15T14:56:40.881Z,1.13
2023-11-15T14:59:09.297Z,2.45
2023-11-15T15:01:37.011Z,0.80
2023-11-15T15:04:06.054Z,0.93
2023-11-15T15:06:33.881Z,0.90
2023-11-15T15:09:01.547Z,0.93
2023-11-15T15:11:31.242Z,1.05
2023-11-15T15:14:00.370Z,1.67
2023-11-15T15:16:28.014Z,1.55
2023-11-15T15:18:55.845Z,1.10
2023-11-15T15:21:23.592Z,1.60
2023-11-15T15:23:51.287Z,2.25
2023-11-15T15:26:22.510Z,1.50
2023-11-15T15:28:55.075Z,1.48
2023-11-15T15:31:24.685Z,1.65
2023-11-15T15:33:52.384Z,0.85
2023-11-15T15:36:21.620Z,1.73
2023-11-15T15:38:52.075Z,1.50
2023-11-15T15:41:21.757Z,1.20
2023-11-15T15:43:51.085Z,1.58
2023-11-15T15:46:19.514Z,1.23
2023-11-15T15:48:50.928Z,1.45
2023-11-15T15:51:19.745Z,1.65
2023-11-15T15:53:47.505Z,1.30
2023-11-15T15:56:15.331Z,2.03
2023-11-15T15:58:43.253Z,1.27
2023-11-15T16:01:11.092Z,1.25
2023-11-15T16:03:38.939Z,1.63
2023-11-15T16:06:08.615Z,2.25
2023-11-15T16:08:36.262Z,1.45
2023-11-15T16:11:04.930Z,1.80
2023-11-15T16:13:34.409Z,1.27
2023-11-15T16:16:02.224Z,1.08
2023-11-15T16:18:30.174Z,1.83
2023-11-15T16:20:58.072Z,1.50
2023-11-15T16:23:27.464Z,1.40
2023-11-15T16:25:58.568Z,1.27
2023-11-15T16:28:26.683Z,1.45
2023-11-15T16:30:54.385Z,2.08
2023-11-15T16:33:22.458Z,1.75
2023-11-15T16:35:50.371Z,1.52
2023-11-15T16:38:18.127Z,1.75
2023-11-15T16:40:47.463Z,1.58
2023-11-15T16:43:15.303Z,1.67
2023-11-15T16:45:43.290Z,2.30
2023-11-15T16:48:11.303Z,2.28
2023-11-15T16:50:40.959Z,1.35
2023-11-15T16:53:08.619Z,2.22
2023-11-15T16:55:36.524Z,1.63
2023-11-15T16:58:06.927Z,2.30
2023-11-15T17:00:34.616Z,1.90
2023-11-15T17:03:05.809Z,2.00
2023-11-15T17:05:33.703Z,1.90
2023-11-15T17:08:01.300Z,2.38
2023-11-15T17:10:30.533Z,1.40
2023-11-15T17:12:59.492Z,2.60
2023-11-15T17:15:28.534Z,2.05
2023-11-15T17:17:56.527Z,3.30
2023-11-15T17:20:24.235Z,1.65
2023-11-15T17:22:56.242Z,1.92
2023-11-15T17:25:24.132Z,1.75
2023-11-15T17:27:53.993Z,1.58
2023-11-15T17:30:22.990Z,1.92
2023-11-15T17:32:56.336Z,2.05
2023-11-15T17:35:24.269Z,2.10
2023-11-15T17:37:59.505Z,1.85
2023-11-15T17:40:27.326Z,2.28
2023-11-15T17:42:56.099Z,2.83
2023-11-15T17:45:25.027Z,3.35
2023-11-15T17:47:54.157Z,1.95
2023-11-15T17:50:22.994Z,2.47
2023-11-15T17:52:51.357Z,1.77
2023-11-15T17:55:19.048Z,2.50
2023-11-15T17:57:47.152Z,2.90
2023-11-15T18:00:15.353Z,1.98
2023-11-15T18:02:45.411Z,2.00
2023-11-15T18:05:14.672Z,2.88
2023-11-15T18:07:42.637Z,2.60
2023-11-15T18:10:14.987Z,1.90
2023-11-15T18:12:43.231Z,2.08
2023-11-15T18:15:13.552Z,2.40
2023-11-15T18:17:41.352Z,2.97
2023-11-15T18:20:12.188Z,2.55
2023-11-15T18:22:41.418Z,2.67
2023-11-15T18:25:10.735Z,3.10
2023-11-15T18:27:39.018Z,3.13
2023-11-15T18:30:12.762Z,2.47
2023-11-15T18:32:41.125Z,2.85
2023-11-15T18:35:09.408Z,2.90
2023-11-15T18:37:37.556Z,3.25
2023-11-15T18:40:07.750Z,3.33
2023-11-15T18:42:35.491Z,2.50
2023-11-15T18:45:05.504Z,3.42
2023-11-15T18:47:37.764Z,3.60
2023-11-15T18:50:06.914Z,3.70
2023-11-15T18:52:34.685Z,3.28
2023-11-15T18:55:03.505Z,3.28
2023-11-15T18:57:32.646Z,4.07
2023-11-15T19:00:14.869Z,3.38
2023-11-15T19:02:45.939Z,2.70
2023-11-15T19:05:15.321Z,3.20
2023-11-15T19:07:43.150Z,2.67
2023-11-15T19:10:11.717Z,2.88
2023-11-15T19:12:41.137Z,3.30
2023-11-15T19:15:12.232Z,3.25
2023-11-15T19:17:41.109Z,2.88
2023-11-15T19:20:09.974Z,3.45
2023-11-15T19:22:38.074Z,2.75
2023-11-15T19:25:08.645Z,4.07
2023-11-15T19:27:39.332Z,3.10
2023-11-15T19:30:10.195Z,2.50
2023-11-15T19:32:38.363Z,3.85
2023-11-15T19:35:09.197Z,4.28
2023-11-15T19:37:37.721Z,3.28
2023-11-15T19:40:09.069Z,2.70
2023-11-15T19:42:37.001Z,3.03
2023-11-15T19:45:05.404Z,3.20
2023-11-15T19:47:34.831Z,3.17
2023-11-15T19:50:02.572Z,2.75
2023-11-15T19:52:30.800Z,3.33
2023-11-15T19:54:59.022Z,3.20
2023-11-15T19:57:27.815Z,3.97
2023-11-15T19:59:56.148Z,3.22
2023-11-15T20:02:31.561Z,2.50
2023-11-15T20:05:07.250Z,3.00
2023-11-15T20:07:34.928Z,2.72
2023-11-15T20:10:02.918Z,4.00
2023-11-15T20:12:31.532Z,2.60
2023-11-15T20:14:59.253Z,3.22
2023-11-15T20:17:27.162Z,3.17
2023-11-15T20:19:55.156Z,2.17
2023-11-15T20:22:24.137Z,2.95
2023-11-15T20:24:52.118Z,3.55
2023-11-15T20:27:19.840Z,3.08
2023-11-15T20:29:47.557Z,3.78
2023-11-15T20:32:15.402Z,2.83
2023-11-15T20:34:44.962Z,2.60
2023-11-15T20:37:12.751Z,2.63
2023-11-15T20:39:43.667Z,4.40
2023-11-15T20:42:11.443Z,3.35
2023-11-15T20:44:39.159Z,3.75
2023-11-15T20:47:07.120Z,3.92
2023-11-15T20:49:34.797Z,3.00
2023-11-15T20:52:04.789Z,3.03
2023-11-15T20:54:33.890Z,3.08
2023-11-15T20:57:03.393Z,3.30
2023-11-15T20:59:32.922Z,2.88
2023-11-15T21:02:01.518Z,3.33
2023-11-15T21:04:29.831Z,3.22
2023-11-15T21:07:00.194Z,3.95
2023-11-15T21:09:28.081Z,3.47
2023-11-15T21:11:56.297Z,3.53
2023-11-15T21:14:26.717Z,3.35
2023-11-15T21:16:54.346Z,4.30
2023-11-15T21:19:22.084Z,3.83
2023-11-15T21:21:49.885Z,3.17
2023-11-15T21:24:18.846Z,2.97
2023-11-15T21:26:47.842Z,3.15
2023-11-15T21:29:15.527Z,3.42
2023-11-15T21:31:44.538Z,3.25
2023-11-15T21:34:12.264Z,3.38
2023-11-15T21:36:39.947Z,3.60
2023-11-15T21:39:09.622Z,3.40
2023-11-15T21:41:38.186Z,3.05
2023-11-15T21:44:06.056Z,3.60
2023-11-15T21:46:33.812Z,3.63
2023-11-15T21:49:02.932Z,4.10
2023-11-15T21:51:30.881Z,3.55
2023-11-15T21:53:59.453Z,2.88
2023-11-15T21:56:27.162Z,4.07
2023-11-15T21:58:55.311Z,3.20
2023-11-15T22:01:24.875Z,5.35
2023-11-15T22:03:52.705Z,4.22
2023-11-15T22:06:23.164Z,4.40
2023-11-15T22:08:50.954Z,4.22
2023-11-15T22:11:18.829Z,4.20
2023-11-15T22:13:46.481Z,4.60
2023-11-15T22:16:16.371Z,3.88
2023-11-15T22:18:44.264Z,3.97
2023-11-15T22:21:12.180Z,3.78
2023-11-15T22:23:41.487Z,4.18
2023-11-15T22:26:09.322Z,3.55
2023-11-15T22:28:36.965Z,5.00
2023-11-15T22:31:04.906Z,4.15
2023-11-15T22:33:32.636Z,2.97
2023-11-15T22:36:04.489Z,4.28
2023-11-15T22:38:32.132Z,3.63
2023-11-15T22:41:01.705Z,3.20
2023-11-15T22:43:31.371Z,3.45
2023-11-15T22:45:59.251Z,4.43
2023-11-15T22:48:27.181Z,3.75
2023-11-15T22:50:54.858Z,3.50
2023-11-15T22:53:22.562Z,2.95
2023-11-15T22:55:50.687Z,3.70
2023-11-15T22:58:19.673Z,4.50
2023-11-15T23:00:50.542Z,3.53
2023-11-15T23:03:20.920Z,4.05
2023-11-15T23:05:49.887Z,3.60
2023-11-15T23:08:18.304Z,4.90
2023-11-15T23:10:45.951Z,4.25
2023-11-15T23:13:13.594Z,3.08
2023-11-15T23:15:42.932Z,3.65
2023-11-15T23:18:11.202Z,4.40
2023-11-15T23:20:41.650Z,4.47
2023-11-15T23:23:11.355Z,3.92
2023-11-15T23:25:40.063Z,4.22
2023-11-15T23:28:07.715Z,4.18
2023-11-15T23:30:36.762Z,4.45
2023-11-15T23:33:05.936Z,4.78
2023-11-15T23:35:34.029Z,4.07
2023-11-15T23:38:01.946Z,4.50
2023-11-15T23:40:30.302Z,3.78
2023-11-15T23:42:57.952Z,4.85
2023-11-15T23:45:25.848Z,4.05
2023-11-15T23:47:53.834Z,3.55
2023-11-15T23:50:24.342Z,3.80
2023-11-15T23:52:52.701Z,3.78
2023-11-15T23:55:20.445Z,3.53
2023-11-15T23:57:49.276Z,4.53
